sensor_id;sensor_type;location;lat;lon;timestamp;P1;durP1;ratioP1;P2;durP2;ratioP2
49340;SDS011;35209;51.050;13.678;2024-03-02T00:04:17;46.20;;;28.10;;
49340;SDS011;35209;51.050;13.678;2024-03-02T00:09:19;55.47;;;29.40;;
49340;SDS011;35209;51.050;13.678;2024-03-02T00:14:25;59.03;;;30.33;;
49340;SDS011;35209;51.050;13.678;2024-03-02T00:19:26;61.92;;;31.13;;
49340;SDS011;35209;51.050;13.678;2024-03-02T00:24:31;54.45;;;29.25;;
49340;SDS011;35209;51.050;13.678;2024-03-02T00:29:36;52.25;;;29.25;;
49340;SDS011;35209;51.050;13.678;2024-03-02T00:34:38;55.58;;;28.05;;
49340;SDS011;35209;51.050;13.678;2024-03-02T00:39:40;57.53;;;30.55;;
49340;SDS011;35209;51.050;13.678;2024-03-02T00:44:42;67.40;;;31.90;;
49340;SDS011;35209;51.050;13.678;2024-03-02T00:49:43;55.40;;;31.08;;
49340;SDS011;35209;51.050;13.678;2024-03-02T00:54:48;56.78;;;31.40;;
49340;SDS011;35209;51.050;13.678;2024-03-02T00:59:51;55.97;;;28.63;;
49340;SDS011;35209;51.050;13.678;2024-03-02T01:04:53;59.53;;;29.90;;
49340;SDS011;35209;51.050;13.678;2024-03-02T01:09:55;52.03;;;30.92;;
49340;SDS011;35209;51.050;13.678;2024-03-02T01:14:57;54.60;;;28.80;;
49340;SDS011;35209;51.050;13.678;2024-03-02T01:19:59;53.00;;;29.98;;
49340;SDS011;35209;51.050;13.678;2024-03-02T01:25:00;59.33;;;30.63;;
49340;SDS011;35209;51.050;13.678;2024-03-02T01:30:03;59.20;;;31.40;;
49340;SDS011;35209;51.050;13.678;2024-03-02T01:35:05;49.55;;;27.85;;
49340;SDS011;35209;51.050;13.678;2024-03-02T01:40:08;46.80;;;27.45;;
49340;SDS011;35209;51.050;13.678;2024-03-02T01:45:10;50.47;;;28.98;;
49340;SDS011;35209;51.050;13.678;2024-03-02T01:50:12;55.17;;;28.75;;
49340;SDS011;35209;51.050;13.678;2024-03-02T01:55:14;50.85;;;29.70;;
49340;SDS011;35209;51.050;13.678;2024-03-02T02:00:16;52.92;;;26.85;;
49340;SDS011;35209;51.050;13.678;2024-03-02T02:05:19;47.72;;;27.60;;
49340;SDS011;35209;51.050;13.678;2024-03-02T02:10:20;59.05;;;31.02;;
49340;SDS011;35209;51.050;13.678;2024-03-02T02:15:26;55.28;;;30.30;;
49340;SDS011;35209;51.050;13.678;2024-03-02T02:20:29;49.88;;;28.85;;
49340;SDS011;35209;51.050;13.678;2024-03-02T02:25:31;50.10;;;27.60;;
49340;SDS011;35209;51.050;13.678;2024-03-02T02:30:33;56.05;;;30.63;;
49340;SDS011;35209;51.050;13.678;2024-03-02T02:35:35;50.90;;;29.70;;
49340;SDS011;35209;51.050;13.678;2024-03-02T02:40:37;50.65;;;28.52;;
49340;SDS011;35209;51.050;13.678;2024-03-02T02:45:38;52.60;;;27.83;;
49340;SDS011;35209;51.050;13.678;2024-03-02T02:50:41;40.08;;;25.60;;
49340;SDS011;35209;51.050;13.678;2024-03-02T02:55:43;47.25;;;27.48;;
49340;SDS011;35209;51.050;13.678;2024-03-02T03:00:45;47.25;;;27.83;;
49340;SDS011;35209;51.050;13.678;2024-03-02T03:05:47;56.78;;;29.90;;
49340;SDS011;35209;51.050;13.678;2024-03-02T03:10:50;51.65;;;28.48;;
49340;SDS011;35209;51.050;13.678;2024-03-02T03:15:51;54.60;;;30.95;;
49340;SDS011;35209;51.050;13.678;2024-03-02T03:20:54;48.55;;;28.50;;
49340;SDS011;35209;51.050;13.678;2024-03-02T03:25:56;46.72;;;27.58;;
49340;SDS011;35209;51.050;13.678;2024-03-02T03:30:57;45.10;;;28.60;;
49340;SDS011;35209;51.050;13.678;2024-03-02T03:36:00;46.88;;;28.90;;
49340;SDS011;35209;51.050;13.678;2024-03-02T03:41:04;50.05;;;27.10;;
49340;SDS011;35209;51.050;13.678;2024-03-02T03:46:06;52.45;;;28.73;;
49340;SDS011;35209;51.050;13.678;2024-03-02T03:51:09;54.72;;;28.55;;
49340;SDS011;35209;51.050;13.678;2024-03-02T03:56:11;53.28;;;29.35;;
49340;SDS011;35209;51.050;13.678;2024-03-02T04:01:12;55.25;;;28.83;;
49340;SDS011;35209;51.050;13.678;2024-03-02T04:06:14;42.40;;;26.95;;
49340;SDS011;35209;51.050;13.678;2024-03-02T04:11:17;41.50;;;26.02;;
49340;SDS011;35209;51.050;13.678;2024-03-02T04:16:19;53.70;;;28.52;;
49340;SDS011;35209;51.050;13.678;2024-03-02T04:21:21;41.97;;;26.55;;
49340;SDS011;35209;51.050;13.678;2024-03-02T04:26:23;45.90;;;25.58;;
49340;SDS011;35209;51.050;13.678;2024-03-02T04:31:26;48.30;;;27.08;;
49340;SDS011;35209;51.050;13.678;2024-03-02T04:36:28;42.08;;;26.95;;
49340;SDS011;35209;51.050;13.678;2024-03-02T04:41:30;48.15;;;27.60;;
49340;SDS011;35209;51.050;13.678;2024-03-02T04:46:31;49.15;;;26.67;;
49340;SDS011;35209;51.050;13.678;2024-03-02T04:51:33;47.83;;;26.45;;
49340;SDS011;35209;51.050;13.678;2024-03-02T04:56:35;47.35;;;26.88;;
49340;SDS011;35209;51.050;13.678;2024-03-02T05:01:51;37.97;;;24.30;;
49340;SDS011;35209;51.050;13.678;2024-03-02T05:06:53;53.85;;;28.40;;
49340;SDS011;35209;51.050;13.678;2024-03-02T05:11:56;53.47;;;28.65;;
49340;SDS011;35209;51.050;13.678;2024-03-02T05:17:10;51.15;;;28.23;;
49340;SDS011;35209;51.050;13.678;2024-03-02T05:22:12;48.35;;;26.38;;
49340;SDS011;35209;51.050;13.678;2024-03-02T05:27:14;50.72;;;27.38;;
49340;SDS011;35209;51.050;13.678;2024-03-02T05:32:16;54.50;;;28.67;;
49340;SDS011;35209;51.050;13.678;2024-03-02T05:37:18;46.83;;;25.63;;
49340;SDS011;35209;51.050;13.678;2024-03-02T05:42:20;52.20;;;27.10;;
49340;SDS011;35209;51.050;13.678;2024-03-02T05:47:21;53.80;;;26.98;;
49340;SDS011;35209;51.050;13.678;2024-03-02T05:52:23;52.35;;;27.48;;
49340;SDS011;35209;51.050;13.678;2024-03-02T05:57:25;58.17;;;27.48;;
49340;SDS011;35209;51.050;13.678;2024-03-02T06:02:45;50.05;;;25.67;;
49340;SDS011;35209;51.050;13.678;2024-03-02T06:07:47;41.83;;;22.70;;
49340;SDS011;35209;51.050;13.678;2024-03-02T06:12:48;46.50;;;26.42;;
49340;SDS011;35209;51.050;13.678;2024-03-02T06:17:50;57.00;;;25.55;;
49340;SDS011;35209;51.050;13.678;2024-03-02T06:22:52;48.13;;;25.58;;
49340;SDS011;35209;51.050;13.678;2024-03-02T06:27:54;46.25;;;24.85;;
49340;SDS011;35209;51.050;13.678;2024-03-02T06:32:56;51.28;;;26.05;;
49340;SDS011;35209;51.050;13.678;2024-03-02T06:37:57;61.53;;;25.65;;
49340;SDS011;35209;51.050;13.678;2024-03-02T06:42:59;41.50;;;24.98;;
49340;SDS011;35209;51.050;13.678;2024-03-02T06:48:01;44.55;;;25.35;;
49340;SDS011;35209;51.050;13.678;2024-03-02T06:53:03;52.95;;;25.83;;
49340;SDS011;35209;51.050;13.678;2024-03-02T06:58:05;48.58;;;25.88;;
49340;SDS011;35209;51.050;13.678;2024-03-02T07:03:07;59.65;;;28.98;;
49340;SDS011;35209;51.050;13.678;2024-03-02T07:08:09;61.30;;;28.27;;
49340;SDS011;35209;51.050;13.678;2024-03-02T07:13:11;44.72;;;23.80;;
49340;SDS011;35209;51.050;13.678;2024-03-02T07:18:14;52.47;;;26.38;;
49340;SDS011;35209;51.050;13.678;2024-03-02T07:23:16;55.90;;;26.88;;
49340;SDS011;35209;51.050;13.678;2024-03-02T07:28:18;50.03;;;26.58;;
49340;SDS011;35209;51.050;13.678;2024-03-02T07:33:20;71.10;;;32.97;;
49340;SDS011;35209;51.050;13.678;2024-03-02T07:38:23;60.45;;;30.48;;
49340;SDS011;35209;51.050;13.678;2024-03-02T07:43:24;60.10;;;29.35;;
49340;SDS011;35209;51.050;13.678;2024-03-02T07:48:27;52.83;;;28.25;;
49340;SDS011;35209;51.050;13.678;2024-03-02T07:53:29;61.35;;;27.13;;
49340;SDS011;35209;51.050;13.678;2024-03-02T07:58:31;51.92;;;26.75;;
49340;SDS011;35209;51.050;13.678;2024-03-02T08:03:33;69.03;;;29.33;;
49340;SDS011;35209;51.050;13.678;2024-03-02T08:08:36;59.75;;;27.60;;
49340;SDS011;35209;51.050;13.678;2024-03-02T08:13:37;59.88;;;28.60;;
49340;SDS011;35209;51.050;13.678;2024-03-02T08:18:39;58.50;;;28.23;;
49340;SDS011;35209;51.050;13.678;2024-03-02T08:23:42;64.75;;;30.25;;
49340;SDS011;35209;51.050;13.678;2024-03-02T08:28:45;68.90;;;31.70;;
49340;SDS011;35209;51.050;13.678;2024-03-02T08:33:47;71.05;;;33.17;;
49340;SDS011;35209;51.050;13.678;2024-03-02T08:38:49;65.90;;;29.70;;
49340;SDS011;35209;51.050;13.678;2024-03-02T08:43:52;61.38;;;30.67;;
49340;SDS011;35209;51.050;13.678;2024-03-02T08:48:53;62.05;;;27.67;;
49340;SDS011;35209;51.050;13.678;2024-03-02T08:53:56;49.13;;;25.50;;
49340;SDS011;35209;51.050;13.678;2024-03-02T08:58:59;66.25;;;28.75;;
49340;SDS011;35209;51.050;13.678;2024-03-02T09:04:01;62.75;;;27.75;;
49340;SDS011;35209;51.050;13.678;2024-03-02T09:09:02;60.88;;;26.50;;
49340;SDS011;35209;51.050;13.678;2024-03-02T09:14:05;61.45;;;25.33;;
49340;SDS011;35209;51.050;13.678;2024-03-02T09:19:07;58.65;;;25.50;;
49340;SDS011;35209;51.050;13.678;2024-03-02T09:24:11;42.67;;;21.60;;
49340;SDS011;35209;51.050;13.678;2024-03-02T09:29:17;45.57;;;21.33;;
49340;SDS011;35209;51.050;13.678;2024-03-02T09:34:18;34.70;;;20.33;;
49340;SDS011;35209;51.050;13.678;2024-03-02T09:39:20;36.58;;;20.02;;
49340;SDS011;35209;51.050;13.678;2024-03-02T09:44:22;32.47;;;18.70;;
49340;SDS011;35209;51.050;13.678;2024-03-02T09:49:26;28.42;;;18.00;;
49340;SDS011;35209;51.050;13.678;2024-03-02T09:54:28;31.42;;;18.35;;
49340;SDS011;35209;51.050;13.678;2024-03-02T09:59:30;21.55;;;15.38;;
49340;SDS011;35209;51.050;13.678;2024-03-02T10:04:32;23.58;;;14.98;;
49340;SDS011;35209;51.050;13.678;2024-03-02T10:09:35;17.92;;;13.43;;
49340;SDS011;35209;51.050;13.678;2024-03-02T10:14:37;13.90;;;12.40;;
49340;SDS011;35209;51.050;13.678;2024-03-02T10:19:39;14.55;;;12.05;;
49340;SDS011;35209;51.050;13.678;2024-03-02T10:24:42;13.55;;;11.73;;
49340;SDS011;35209;51.050;13.678;2024-03-02T10:29:51;16.80;;;13.25;;
49340;SDS011;35209;51.050;13.678;2024-03-02T10:34:53;14.00;;;12.50;;
49340;SDS011;35209;51.050;13.678;2024-03-02T10:39:56;17.40;;;13.55;;
49340;SDS011;35209;51.050;13.678;2024-03-02T10:44:57;14.23;;;12.73;;
49340;SDS011;35209;51.050;13.678;2024-03-02T10:49:59;18.67;;;12.13;;
49340;SDS011;35209;51.050;13.678;2024-03-02T10:55:03;11.77;;;10.45;;
49340;SDS011;35209;51.050;13.678;2024-03-02T11:00:07;11.95;;;10.73;;
49340;SDS011;35209;51.050;13.678;2024-03-02T11:05:17;11.68;;;10.48;;
49340;SDS011;35209;51.050;13.678;2024-03-02T11:10:27;11.77;;;9.43;;
49340;SDS011;35209;51.050;13.678;2024-03-02T11:15:35;10.63;;;8.82;;
49340;SDS011;35209;51.050;13.678;2024-03-02T11:20:39;8.95;;;8.15;;
49340;SDS011;35209;51.050;13.678;2024-03-02T11:25:42;7.38;;;6.63;;
49340;SDS011;35209;51.050;13.678;2024-03-02T11:35:46;5.47;;;4.32;;
49340;SDS011;35209;51.050;13.678;2024-03-02T11:40:48;4.30;;;3.85;;
49340;SDS011;35209;51.050;13.678;2024-03-02T11:45:56;5.20;;;4.70;;
49340;SDS011;35209;51.050;13.678;2024-03-02T11:50:59;4.22;;;3.85;;
49340;SDS011;35209;51.050;13.678;2024-03-02T11:56:02;4.72;;;4.32;;
49340;SDS011;35209;51.050;13.678;2024-03-02T12:01:04;4.72;;;4.28;;
49340;SDS011;35209;51.050;13.678;2024-03-02T12:06:06;4.80;;;4.40;;
49340;SDS011;35209;51.050;13.678;2024-03-02T12:11:08;5.35;;;4.78;;
49340;SDS011;35209;51.050;13.678;2024-03-02T12:16:22;5.85;;;4.47;;
49340;SDS011;35209;51.050;13.678;2024-03-02T12:21:25;5.53;;;5.03;;
49340;SDS011;35209;51.050;13.678;2024-03-02T12:26:27;5.35;;;4.80;;
49340;SDS011;35209;51.050;13.678;2024-03-02T12:31:30;7.47;;;5.90;;
49340;SDS011;35209;51.050;13.678;2024-03-02T12:36:37;6.20;;;5.60;;
49340;SDS011;35209;51.050;13.678;2024-03-02T12:41:43;5.78;;;4.80;;
49340;SDS011;35209;51.050;13.678;2024-03-02T12:46:45;6.88;;;5.63;;
49340;SDS011;35209;51.050;13.678;2024-03-02T12:51:48;10.63;;;7.68;;
49340;SDS011;35209;51.050;13.678;2024-03-02T12:56:53;9.82;;;8.32;;
49340;SDS011;35209;51.050;13.678;2024-03-02T13:01:55;9.65;;;8.68;;
49340;SDS011;35209;51.050;13.678;2024-03-02T13:07:00;10.60;;;8.75;;
49340;SDS011;35209;51.050;13.678;2024-03-02T13:12:04;9.70;;;8.70;;
49340;SDS011;35209;51.050;13.678;2024-03-02T13:17:07;7.97;;;7.15;;
49340;SDS011;35209;51.050;13.678;2024-03-02T13:22:10;10.05;;;8.18;;
49340;SDS011;35209;51.050;13.678;2024-03-02T13:27:11;11.15;;;8.40;;
49340;SDS011;35209;51.050;13.678;2024-03-02T13:32:14;18.70;;;8.82;;
49340;SDS011;35209;51.050;13.678;2024-03-02T13:37:16;11.77;;;10.10;;
49340;SDS011;35209;51.050;13.678;2024-03-02T13:42:18;11.88;;;9.45;;
49340;SDS011;35209;51.050;13.678;2024-03-02T13:47:20;15.05;;;10.23;;
49340;SDS011;35209;51.050;13.678;2024-03-02T13:52:22;12.75;;;8.95;;
49340;SDS011;35209;51.050;13.678;2024-03-02T13:57:24;11.98;;;8.80;;
49340;SDS011;35209;51.050;13.678;2024-03-02T14:02:27;11.45;;;8.90;;
49340;SDS011;35209;51.050;13.678;2024-03-02T14:07:29;10.77;;;8.88;;
49340;SDS011;35209;51.050;13.678;2024-03-02T14:12:31;11.15;;;9.10;;
49340;SDS011;35209;51.050;13.678;2024-03-02T14:17:33;10.57;;;9.35;;
49340;SDS011;35209;51.050;13.678;2024-03-02T14:22:35;13.02;;;10.43;;
49340;SDS011;35209;51.050;13.678;2024-03-02T14:27:38;14.15;;;11.20;;
49340;SDS011;35209;51.050;13.678;2024-03-02T14:33:00;16.63;;;11.95;;
49340;SDS011;35209;51.050;13.678;2024-03-02T14:38:02;16.67;;;11.63;;
49340;SDS011;35209;51.050;13.678;2024-03-02T14:43:04;11.05;;;9.90;;
49340;SDS011;35209;51.050;13.678;2024-03-02T14:48:06;13.77;;;10.15;;
49340;SDS011;35209;51.050;13.678;2024-03-02T14:53:08;13.25;;;11.90;;
49340;SDS011;35209;51.050;13.678;2024-03-02T14:58:10;11.88;;;10.68;;
49340;SDS011;35209;51.050;13.678;2024-03-02T15:03:11;12.00;;;10.38;;
49340;SDS011;35209;51.050;13.678;2024-03-02T15:08:14;11.85;;;10.63;;
49340;SDS011;35209;51.050;13.678;2024-03-02T15:13:15;12.50;;;10.95;;
49340;SDS011;35209;51.050;13.678;2024-03-02T15:18:18;13.15;;;10.30;;
49340;SDS011;35209;51.050;13.678;2024-03-02T15:23:20;10.43;;;9.25;;
49340;SDS011;35209;51.050;13.678;2024-03-02T15:28:22;11.95;;;10.52;;
49340;SDS011;35209;51.050;13.678;2024-03-02T15:33:23;11.23;;;9.05;;
49340;SDS011;35209;51.050;13.678;2024-03-02T15:38:30;12.32;;;9.77;;
49340;SDS011;35209;51.050;13.678;2024-03-02T15:43:37;9.25;;;8.27;;
49340;SDS011;35209;51.050;13.678;2024-03-02T15:48:41;10.43;;;9.00;;
49340;SDS011;35209;51.050;13.678;2024-03-02T15:53:42;11.73;;;8.63;;
49340;SDS011;35209;51.050;13.678;2024-03-02T15:58:45;11.48;;;9.07;;
49340;SDS011;35209;51.050;13.678;2024-03-02T16:03:47;10.88;;;9.68;;
49340;SDS011;35209;51.050;13.678;2024-03-02T16:08:52;11.32;;;9.55;;
49340;SDS011;35209;51.050;13.678;2024-03-02T16:13:54;13.85;;;10.43;;
49340;SDS011;35209;51.050;13.678;2024-03-02T16:18:57;13.55;;;10.68;;
49340;SDS011;35209;51.050;13.678;2024-03-02T16:23:58;13.43;;;10.82;;
49340;SDS011;35209;51.050;13.678;2024-03-02T16:29:01;16.75;;;11.45;;
49340;SDS011;35209;51.050;13.678;2024-03-02T16:34:04;15.70;;;11.35;;
49340;SDS011;35209;51.050;13.678;2024-03-02T16:39:05;14.88;;;13.10;;
49340;SDS011;35209;51.050;13.678;2024-03-02T16:44:09;14.77;;;12.52;;
49340;SDS011;35209;51.050;13.678;2024-03-02T16:49:11;15.73;;;14.18;;
49340;SDS011;35209;51.050;13.678;2024-03-02T16:54:13;14.75;;;13.07;;
49340;SDS011;35209;51.050;13.678;2024-03-02T16:59:15;19.65;;;13.05;;
49340;SDS011;35209;51.050;13.678;2024-03-02T17:04:17;18.15;;;13.10;;
49340;SDS011;35209;51.050;13.678;2024-03-02T17:09:21;14.25;;;12.85;;
49340;SDS011;35209;51.050;13.678;2024-03-02T17:14:23;13.43;;;11.88;;
49340;SDS011;35209;51.050;13.678;2024-03-02T17:19:25;13.85;;;12.07;;
49340;SDS011;35209;51.050;13.678;2024-03-02T17:24:27;13.55;;;12.35;;
49340;SDS011;35209;51.050;13.678;2024-03-02T17:29:29;14.13;;;12.68;;
49340;SDS011;35209;51.050;13.678;2024-03-02T17:34:32;14.40;;;13.05;;
49340;SDS011;35209;51.050;13.678;2024-03-02T17:39:33;12.32;;;11.13;;
49340;SDS011;35209;51.050;13.678;2024-03-02T17:44:35;14.00;;;12.50;;
49340;SDS011;35209;51.050;13.678;2024-03-02T17:49:37;12.45;;;11.15;;
49340;SDS011;35209;51.050;13.678;2024-03-02T17:54:39;14.02;;;12.07;;
49340;SDS011;35209;51.050;13.678;2024-03-02T17:59:41;12.20;;;10.27;;
49340;SDS011;35209;51.050;13.678;2024-03-02T18:04:45;15.00;;;12.50;;
49340;SDS011;35209;51.050;13.678;2024-03-02T18:09:46;14.15;;;12.73;;
49340;SDS011;35209;51.050;13.678;2024-03-02T18:14:48;18.25;;;13.40;;
49340;SDS011;35209;51.050;13.678;2024-03-02T18:19:50;14.20;;;12.80;;
49340;SDS011;35209;51.050;13.678;2024-03-02T18:24:52;13.60;;;11.55;;
49340;SDS011;35209;51.050;13.678;2024-03-02T18:29:54;15.00;;;13.57;;
49340;SDS011;35209;51.050;13.678;2024-03-02T18:34:56;15.68;;;13.93;;
49340;SDS011;35209;51.050;13.678;2024-03-02T18:39:58;15.95;;;14.38;;
49340;SDS011;35209;51.050;13.678;2024-03-02T18:45:00;18.25;;;14.70;;
49340;SDS011;35209;51.050;13.678;2024-03-02T18:50:07;15.88;;;14.10;;
49340;SDS011;35209;51.050;13.678;2024-03-02T18:55:11;16.20;;;14.10;;
49340;SDS011;35209;51.050;13.678;2024-03-02T19:00:14;15.13;;;13.43;;
49340;SDS011;35209;51.050;13.678;2024-03-02T19:05:16;17.25;;;14.77;;
49340;SDS011;35209;51.050;13.678;2024-03-02T19:10:18;15.68;;;14.18;;
49340;SDS011;35209;51.050;13.678;2024-03-02T19:15:20;17.17;;;14.93;;
49340;SDS011;35209;51.050;13.678;2024-03-02T19:20:21;14.77;;;13.18;;
49340;SDS011;35209;51.050;13.678;2024-03-02T19:25:24;23.40;;;16.90;;
49340;SDS011;35209;51.050;13.678;2024-03-02T19:30:26;19.85;;;14.35;;
49340;SDS011;35209;51.050;13.678;2024-03-02T19:35:29;21.38;;;15.80;;
49340;SDS011;35209;51.050;13.678;2024-03-02T19:40:30;18.00;;;16.05;;
49340;SDS011;35209;51.050;13.678;2024-03-02T19:45:32;21.88;;;16.25;;
49340;SDS011;35209;51.050;13.678;2024-03-02T19:50:34;18.48;;;14.45;;
49340;SDS011;35209;51.050;13.678;2024-03-02T19:55:38;19.73;;;16.70;;
49340;SDS011;35209;51.050;13.678;2024-03-02T20:00:41;22.00;;;15.88;;
49340;SDS011;35209;51.050;13.678;2024-03-02T20:05:43;16.45;;;14.80;;
49340;SDS011;35209;51.050;13.678;2024-03-02T20:10:45;19.73;;;15.43;;
49340;SDS011;35209;51.050;13.678;2024-03-02T20:15:48;21.27;;;17.77;;
49340;SDS011;35209;51.050;13.678;2024-03-02T20:20:50;18.85;;;16.90;;
49340;SDS011;35209;51.050;13.678;2024-03-02T20:25:52;17.42;;;15.38;;
49340;SDS011;35209;51.050;13.678;2024-03-02T20:30:56;17.35;;;15.60;;
49340;SDS011;35209;51.050;13.678;2024-03-02T20:35:57;18.80;;;16.33;;
49340;SDS011;35209;51.050;13.678;2024-03-02T20:40:59;25.05;;;18.50;;
49340;SDS011;35209;51.050;13.678;2024-03-02T20:46:01;20.88;;;16.95;;
49340;SDS011;35209;51.050;13.678;2024-03-02T20:51:07;23.92;;;18.23;;
49340;SDS011;35209;51.050;13.678;2024-03-02T20:56:10;29.42;;;17.75;;
49340;SDS011;35209;51.050;13.678;2024-03-02T21:01:11;23.20;;;18.48;;
49340;SDS011;35209;51.050;13.678;2024-03-02T21:06:13;20.42;;;17.02;;
49340;SDS011;35209;51.050;13.678;2024-03-02T21:11:15;22.02;;;18.10;;
49340;SDS011;35209;51.050;13.678;2024-03-02T21:16:19;25.33;;;18.88;;
49340;SDS011;35209;51.050;13.678;2024-03-02T21:21:21;28.05;;;19.77;;
49340;SDS011;35209;51.050;13.678;2024-03-02T21:26:23;24.98;;;20.10;;
49340;SDS011;35209;51.050;13.678;2024-03-02T21:31:25;19.58;;;17.17;;
49340;SDS011;35209;51.050;13.678;2024-03-02T21:36:27;24.58;;;19.23;;
49340;SDS011;35209;51.050;13.678;2024-03-02T21:41:28;26.88;;;19.30;;
49340;SDS011;35209;51.050;13.678;2024-03-02T21:46:30;24.00;;;18.35;;
49340;SDS011;35209;51.050;13.678;2024-03-02T21:51:32;25.38;;;19.02;;
49340;SDS011;35209;51.050;13.678;2024-03-02T21:56:34;24.98;;;18.60;;
49340;SDS011;35209;51.050;13.678;2024-03-02T22:01:36;22.65;;;17.75;;
49340;SDS011;35209;51.050;13.678;2024-03-02T22:06:38;25.58;;;18.85;;
49340;SDS011;35209;51.050;13.678;2024-03-02T22:11:40;25.00;;;19.35;;
49340;SDS011;35209;51.050;13.678;2024-03-02T22:16:42;26.40;;;18.90;;
49340;SDS011;35209;51.050;13.678;2024-03-02T22:21:44;26.50;;;17.48;;
49340;SDS011;35209;51.050;13.678;2024-03-02T22:26:46;28.27;;;18.05;;
49340;SDS011;35209;51.050;13.678;2024-03-02T22:31:48;23.35;;;17.65;;
49340;SDS011;35209;51.050;13.678;2024-03-02T22:36:49;26.23;;;17.48;;
49340;SDS011;35209;51.050;13.678;2024-03-02T22:41:51;25.02;;;19.13;;
49340;SDS011;35209;51.050;13.678;2024-03-02T22:46:54;25.73;;;19.40;;
49340;SDS011;35209;51.050;13.678;2024-03-02T22:51:56;29.10;;;19.58;;
49340;SDS011;35209;51.050;13.678;2024-03-02T22:56:58;28.77;;;20.33;;
49340;SDS011;35209;51.050;13.678;2024-03-02T23:02:00;31.30;;;20.02;;
49340;SDS011;35209;51.050;13.678;2024-03-02T23:07:02;35.90;;;20.55;;
49340;SDS011;35209;51.050;13.678;2024-03-02T23:12:04;24.70;;;17.77;;
49340;SDS011;35209;51.050;13.678;2024-03-02T23:17:06;32.47;;;20.38;;
49340;SDS011;35209;51.050;13.678;2024-03-02T23:22:08;32.42;;;19.83;;
49340;SDS011;35209;51.050;13.678;2024-03-02T23:27:11;30.00;;;20.45;;
49340;SDS011;35209;51.050;13.678;2024-03-02T23:32:13;26.38;;;19.70;;
49340;SDS011;35209;51.050;13.678;2024-03-02T23:37:15;29.38;;;20.75;;
49340;SDS011;35209;51.050;13.678;2024-03-02T23:42:17;36.15;;;23.92;;
49340;SDS011;35209;51.050;13.678;2024-03-02T23:47:19;35.15;;;22.83;;
49340;SDS011;35209;51.050;13.678;2024-03-02T23:52:23;32.15;;;21.10;;
49340;SDS011;35209;51.050;13.678;2024-03-02T23:57:26;32.83;;;20.52;;
